地図

経路データ

SID SEASON NUMBER BASIN SUBBASIN NAME ISO_TIME NATURE LAT LON WMO_WIND WMO_PRES WMO_AGENCY TRACK_TYPE DIST2LAND LANDFALL IFLAG USA_AGENCY USA_ATCF_ID USA_LAT USA_LON USA_RECORD USA_STATUS USA_WIND USA_PRES USA_SSHS USA_R34_NE USA_R34_SE USA_R34_SW USA_R34_NW USA_R50_NE USA_R50_SE USA_R50_SW USA_R50_NW USA_R64_NE USA_R64_SE USA_R64_SW USA_R64_NW USA_POCI USA_ROCI USA_RMW USA_EYE TOKYO_LAT TOKYO_LON TOKYO_GRADE TOKYO_WIND TOKYO_PRES TOKYO_R50_DIR TOKYO_R50_LONG TOKYO_R50_SHORT TOKYO_R30_DIR TOKYO_R30_LONG TOKYO_R30_SHORT TOKYO_LAND CMA_LAT CMA_LON CMA_CAT CMA_WIND CMA_PRES HKO_LAT HKO_LON HKO_CAT HKO_WIND HKO_PRES NEWDELHI_LAT NEWDELHI_LON NEWDELHI_GRADE NEWDELHI_WIND NEWDELHI_PRES NEWDELHI_CI NEWDELHI_DP NEWDELHI_POCI REUNION_LAT REUNION_LON REUNION_TYPE REUNION_WIND REUNION_PRES REUNION_TNUM REUNION_CI REUNION_RMW REUNION_R34_NE REUNION_R34_SE REUNION_R34_SW REUNION_R34_NW REUNION_R50_NE REUNION_R50_SE REUNION_R50_SW REUNION_R50_NW REUNION_R64_NE REUNION_R64_SE REUNION_R64_SW REUNION_R64_NW BOM_LAT BOM_LON BOM_TYPE BOM_WIND BOM_PRES BOM_TNUM BOM_CI BOM_RMW BOM_R34_NE BOM_R34_SE BOM_R34_SW BOM_R34_NW BOM_R50_NE BOM_R50_SE BOM_R50_SW BOM_R50_NW BOM_R64_NE BOM_R64_SE BOM_R64_SW BOM_R64_NW BOM_ROCI BOM_POCI BOM_EYE BOM_POS_METHOD BOM_PRES_METHOD NADI_LAT NADI_LON NADI_CAT NADI_WIND NADI_PRES WELLINGTON_LAT WELLINGTON_LON WELLINGTON_WIND WELLINGTON_PRES DS824_LAT DS824_LON DS824_STAGE DS824_WIND DS824_PRES TD9636_LAT TD9636_LON TD9636_STAGE TD9636_WIND TD9636_PRES TD9635_LAT TD9635_LON TD9635_WIND TD9635_PRES TD9635_ROCI NEUMANN_LAT NEUMANN_LON NEUMANN_CLASS NEUMANN_WIND NEUMANN_PRES MLC_LAT MLC_LON MLC_CLASS MLC_WIND MLC_PRES USA_GUST BOM_GUST BOM_GUST_PER REUNION_GUST REUNION_GUST_PER USA_SEAHGT USA_SEARAD_NE USA_SEARAD_SE USA_SEARAD_SW USA_SEARAD_NW STORM_SPEED STORM_DIR
1937171N21090 1937 19 NI BB NOT_NAMED 1937-06-20 00:00:00 TS 20.8000 89.7000 main 105 105 _________O____ -1 20.8000 89.7000 TC 30 0 0
1937171N21090 1937 19 NI BB NOT_NAMED 1937-06-20 03:00:00 TS 20.8000 89.7000 main 105 105 _________PO___ -1 20.8000 89.7000 TC 30 20.8000 89.7000 1 0 0
1937171N21090 1937 19 NI BB NOT_NAMED 1937-06-20 06:00:00 TS 20.8000 89.7000 main 105 105 _________OP___ -1 20.8000 89.7000 TC 30 20.8000 89.7000 1 0 0
1937171N21090 1937 19 NI BB NOT_NAMED 1937-06-20 09:00:00 TS 20.8000 89.7000 main 105 105 _________PP___ -1 20.8000 89.7000 TC 30 20.8000 89.7000 1 0 0
1937171N21090 1937 19 NI BB NOT_NAMED 1937-06-20 12:00:00 TS 20.8000 89.7000 main 105 105 _________OP___ -1 20.8000 89.7000 TC 30 20.8000 89.7000 1 0 0
1937171N21090 1937 19 NI BB NOT_NAMED 1937-06-20 15:00:00 TS 20.8000 89.7000 main 105 105 _________PO___ -1 20.8000 89.7000 TC 30 20.8000 89.7000 1 0 0
1937171N21090 1937 19 NI BB NOT_NAMED 1937-06-20 18:00:00 TS 20.8000 89.7000 main 105 105 _________OP___ -1 20.8000 89.7000 TC 30 20.8000 89.7000 1 0 0
1937171N21090 1937 19 NI BB NOT_NAMED 1937-06-20 21:00:00 TS 20.8000 89.7000 main 105 105 _________PP___ -1 20.8000 89.7000 TC 30 20.8000 89.7000 1 0 0
1937171N21090 1937 19 NI BB NOT_NAMED 1937-06-21 00:00:00 TS 20.8000 89.7000 main 105 105 _________OP___ -1 20.8000 89.7000 TC 30 20.8000 89.7000 1 0 0
1937171N21090 1937 19 NI BB NOT_NAMED 1937-06-21 03:00:00 TS 20.8000 89.7000 main 105 105 _________PO___ -1 20.8000 89.7000 TC 30 20.8000 89.7000 1 0 0
1937171N21090 1937 19 NI BB NOT_NAMED 1937-06-21 06:00:00 TS 20.8000 89.7000 main 105 105 _________OP___ -1 20.8000 89.7000 TC 30 20.8000 89.7000 1 0 0
1937171N21090 1937 19 NI BB NOT_NAMED 1937-06-21 09:00:00 TS 20.8000 89.7000 main 105 105 _________PP___ -1 20.8000 89.7000 TC 30 20.8000 89.7000 1 0 0
1937171N21090 1937 19 NI BB NOT_NAMED 1937-06-21 12:00:00 TS 20.8000 89.7000 main 105 105 _________OP___ -1 20.8000 89.7000 TC 30 20.8000 89.7000 1 0 0
1937171N21090 1937 19 NI BB NOT_NAMED 1937-06-21 15:00:00 TS 20.8000 89.7000 main 105 105 _________PO___ -1 20.8000 89.7000 TC 30 20.8000 89.7000 1 0 0
1937171N21090 1937 19 NI BB NOT_NAMED 1937-06-21 18:00:00 TS 20.7979 89.6838 main 105 105 _________OP___ -1 20.8000 89.7000 TC 30 20.7959 89.6675 1 0 264
1937171N21090 1937 19 NI BB NOT_NAMED 1937-06-21 21:00:00 TS 20.7962 89.6588 main 105 105 _________PP___ -1 20.8000 89.6775 TC 30 20.7923 89.6400 1 0 0
1937171N21090 1937 19 NI BB NOT_NAMED 1937-06-22 00:00:00 TS 20.7963 89.6713 main 105 105 _________OP___ -1 20.8000 89.7000 TC 30 20.7927 89.6425 1 1 90
1937171N21090 1937 19 NI BB NOT_NAMED 1937-06-22 03:00:00 TS 20.7962 89.7563 main 108 108 _________PO___ -1 20.7925 89.8125 TC 30 20.8000 89.7000 1 2 88
1937171N21090 1937 19 NI BB NOT_NAMED 1937-06-22 06:00:00 TS 20.8049 89.9253 main 112 111 _________OP___ -1 20.8000 90.0000 TC 30 20.8099 89.8506 1 4 84
1937171N21090 1937 19 NI BB NOT_NAMED 1937-06-22 09:00:00 TS 20.8352 90.1525 main 111 100 _________PP___ -1 20.8426 90.2500 TC 30 20.8278 90.0550 1 4 80
1937171N21090 1937 19 NI BB NOT_NAMED 1937-06-22 12:00:00 TS 20.8784 90.3910 main 102 102 _________OP___ -1 20.9000 90.5000 TC 30 20.8568 90.2819 1 4 78
1937171N21090 1937 19 NI BB NOT_NAMED 1937-06-22 15:00:00 TS 20.9212 90.5825 main 108 103 _________PO___ -1 20.9424 90.6651 TC 31 20.9000 90.5000 1 3 72
1937171N21090 1937 19 NI BB NOT_NAMED 1937-06-22 18:00:00 TS 20.9803 90.7362 main 103 103 _________OP___ -1 21.0000 90.8000 TC 32 20.9606 90.6725 1 3 63
1937171N21090 1937 19 NI BB NOT_NAMED 1937-06-22 21:00:00 TS 21.0675 90.8937 main 105 98 _________PP___ -1 21.1000 90.9575 TC 33 21.0349 90.8299 1 3 57
1937171N21090 1937 19 NI BB NOT_NAMED 1937-06-23 00:00:00 TS 21.1584 91.0362 main 98 89 _________OP___ -1 21.2000 91.1000 TC 34 21.1168 90.9725 1 3 57
1937171N21090 1937 19 NI BB NOT_NAMED 1937-06-23 03:00:00 TS 21.2250 91.1538 main 79 66 _________PO___ -1 21.2500 91.2076 TC 36 21.2000 91.1000 2 2 59
1937171N21090 1937 19 NI BB NOT_NAMED 1937-06-23 06:00:00 TS 21.2834 91.2593 main 66 52 _________OP___ -1 21.3000 91.3000 TC 39 21.2668 91.2185 2 2 54
1937171N21090 1937 19 NI BB NOT_NAMED 1937-06-23 09:00:00 TS 21.3637 91.3613 main 52 41 _________PP___ -1 21.3925 91.4000 TC 42 21.3349 91.3226 2 3 47
1937171N21090 1937 19 NI BB NOT_NAMED 1937-06-23 12:00:00 TS 21.4553 91.4577 main 41 41 _________OP___ -1 21.5000 91.5000 TC 45 21.4106 91.4154 2 3 44
1937171N21090 1937 19 NI BB NOT_NAMED 1937-06-23 15:00:00 TS 21.5463 91.5538 main 31 31 _________PO___ -1 21.5925 91.6075 TC 41 21.5000 91.5000 3 3 43
1937171N21090 1937 19 NI BB NOT_NAMED 1937-06-23 18:00:00 TS 21.6452 91.6472 main 32 20 _________OP___ -1 21.7000 91.7000 TC 37 21.5903 91.5944 3 3 35
1937171N21090 1937 19 NI BB NOT_NAMED 1937-06-23 21:00:00 TS 21.7587 91.7150 main 20 10 _________PP___ -1 21.8200 91.7501 TC 33 21.6975 91.6800 3 3 24
1937171N21090 1937 19 NI BB NOT_NAMED 1937-06-24 00:00:00 TS 21.9155 91.7753 main 10 0 _________OP___ -1 22.0000 91.8000 TC 30 21.8309 91.7506 3 4 20
1937171N21090 1937 19 NI BB NOT_NAMED 1937-06-24 03:00:00 TS 22.1463 91.8611 main 0 0 _________PO___ -1 22.2925 91.9223 TC 30 22.0000 91.8000 1 5 17
1937171N21090 1937 19 NI BB NOT_NAMED 1937-06-24 06:00:00 TS 22.4231 91.9431 main 0 0 _________OP___ -1 22.6000 92.0000 TC 30 22.2462 91.8862 1 5 11
1937171N21090 1937 19 NI BB NOT_NAMED 1937-06-24 09:00:00 TS 22.6795 91.9661 main 0 0 _________PP___ -1 22.8372 91.9901 TC 30 22.5218 91.9421 1 5 352
1937171N21090 1937 19 NI BB NOT_NAMED 1937-06-24 12:00:00 TS 22.8933 91.8635 main 0 0 _________OP___ -1 23.0000 91.8000 TC 30 22.7866 91.9269 1 5 314
1937171N21090 1937 19 NI BB NOT_NAMED 1937-06-24 15:00:00 TS 23.0365 91.5650 main 0 0 _________PO___ -1 23.0730 91.3300 TC 30 23.0000 91.8000 1 7 288
1937171N21090 1937 19 NI BB NOT_NAMED 1937-06-24 18:00:00 TS 23.1085 91.1251 main 0 0 _________OP___ -1 23.1000 90.8000 TC 30 23.1170 91.4502 1 8 279
1937171N21090 1937 19 NI BB NOT_NAMED 1937-06-24 21:00:00 TS 23.1672 90.7126 main 0 0 _________PP___ -1 23.1574 90.4250 TC 30 23.1770 91.0002 1 7 277
1937171N21090 1937 19 NI BB NOT_NAMED 1937-06-25 00:00:00 TS 23.1991 90.3750 main 0 0 _________OP___ -1 23.2000 90.2000 TC 30 23.1983 90.5500 1 5 274
1937171N21090 1937 19 NI BB NOT_NAMED 1937-06-25 03:00:00 TS 23.2037 90.1775 main 0 0 _________PO___ -1 23.2074 90.1550 TC 30 23.2000 90.2000 1 2 272
1937171N21090 1937 19 NI BB NOT_NAMED 1937-06-25 06:00:00 TS 23.2069 90.1424 main 0 0 _________OP___ -1 23.2000 90.2000 TC 30 23.2138 90.0848 1 0 275
1937171N21090 1937 19 NI BB NOT_NAMED 1937-06-25 09:00:00 TS 23.2072 90.1399 main 0 0 _________PP___ -1 23.2000 90.2000 TC 30 23.2143 90.0798 1 0 0
1937171N21090 1937 19 NI BB NOT_NAMED 1937-06-25 12:00:00 TS 23.2039 90.1675 main 0 0 _________OP___ -1 23.2000 90.2000 TC 30 23.2078 90.1349 1 1 97
1937171N21090 1937 19 NI BB NOT_NAMED 1937-06-25 15:00:00 TS 23.2000 90.2000 main 0 0 _________PO___ -1 23.2000 90.2000 TC 30 23.2000 90.2000 1 0 96
1937171N21090 1937 19 NI BB NOT_NAMED 1937-06-25 18:00:00 TS 23.2000 90.2000 main 0 0 _________OP___ -1 23.2000 90.2000 TC 30 23.2000 90.2000 1 0 0
1937171N21090 1937 19 NI BB NOT_NAMED 1937-06-25 21:00:00 TS 23.2000 90.2000 main 0 0 _________PP___ -1 23.2000 90.2000 TC 30 23.2000 90.2000 1 0 0
1937171N21090 1937 19 NI BB NOT_NAMED 1937-06-26 00:00:00 TS 23.2000 90.2000 main 0 0 _________OP___ -1 23.2000 90.2000 TC 30 23.2000 90.2000 1 0 0
1937171N21090 1937 19 NI BB NOT_NAMED 1937-06-26 03:00:00 TS 23.2000 90.2000 main 0 0 _________PO___ -1 23.2000 90.2000 TC 30 23.2000 90.2000 1 0 0
1937171N21090 1937 19 NI BB NOT_NAMED 1937-06-26 06:00:00 TS 23.2000 90.2000 main 0 0 _________OP___ -1 23.2000 90.2000 TC 30 23.2000 90.2000 1 0 0
1937171N21090 1937 19 NI BB NOT_NAMED 1937-06-26 09:00:00 TS 23.2000 90.2000 main 0 0 _________PP___ -1 23.2000 90.2000 TC 30 23.2000 90.2000 1 0 0
1937171N21090 1937 19 NI BB NOT_NAMED 1937-06-26 12:00:00 TS 23.2000 90.2000 main 0 0 _________OP___ -1 23.2000 90.2000 TC 30 23.2000 90.2000 1 0 0
1937171N21090 1937 19 NI BB NOT_NAMED 1937-06-26 15:00:00 TS 23.2000 90.2000 main 0 0 _________PO___ -1 23.2000 90.2000 TC 30 23.2000 90.2000 1 1 82
1937171N21090 1937 19 NI BB NOT_NAMED 1937-06-26 18:00:00 TS 23.2074 90.2652 main 0 0 _________OP___ -1 23.2000 90.2000 TC 30 23.2149 90.3303 1 2 82
1937171N21090 1937 19 NI BB NOT_NAMED 1937-06-26 21:00:00 TS 23.2210 90.3654 main 0 0 _________PP___ -1 23.2146 90.2901 TC 30 23.2274 90.4406 1 0 82
1937171N21090 1937 19 NI BB NOT_NAMED 1937-06-27 00:00:00 TS 23.2131 90.3153 main 0 0 _________OP___ -1 23.2000 90.2000 TC 30 23.2262 90.4306 1 4 260
1937171N21090 1937 19 NI BB NOT_NAMED 1937-06-27 03:00:00 TS 23.1573 89.9750 main 0 0 _________PO___ -1 23.1145 89.7499 TC 30 23.2000 90.2000 1 9 260
1937171N21090 1937 19 NI BB NOT_NAMED 1937-06-27 06:00:00 TS 23.0533 89.3121 main 0 0 _________OP___ -1 23.0000 89.0000 TC 30 23.1066 89.6241 1 14 261
1937171N21090 1937 19 NI BB NOT_NAMED 1937-06-27 09:00:00 TS 22.9371 88.4296 main 0 0 _________PP___ -1 22.8859 88.0296 TC 30 22.9883 88.8296 1 17 263
1937171N21090 1937 19 NI BB NOT_NAMED 1937-06-27 12:00:00 TS 22.8377 87.4603 main 0 0 _________OP___ -1 22.8000 87.0000 TC 30 22.8753 87.9206 1 17 265
1937171N21090 1937 19 NI BB NOT_NAMED 1937-06-27 15:00:00 TS 22.7846 86.5813 main 0 0 _________PO___ -1 22.7692 86.1626 TC 30 22.8000 87.0000 1 15 268
1937171N21090 1937 19 NI BB NOT_NAMED 1937-06-27 18:00:00 TS 22.7972 85.7951 main 0 0 _________OP___ -1 22.8000 85.4000 TC 30 22.7943 86.1903 1 15 273
1937171N21090 1937 19 NI BB NOT_NAMED 1937-06-27 21:00:00 TS 22.8548 85.0055 main 0 0 _________PP___ -1 22.8773 84.6201 TC 30 22.8322 85.3910 1 14 276
1937171N21090 1937 19 NI BB NOT_NAMED 1937-06-28 00:00:00 TS 22.9520 84.2606 main 0 0 _________OP___ -1 23.0000 83.9000 TC 30 22.9039 84.6211 1 13 280
1937171N21090 1937 19 NI BB NOT_NAMED 1937-06-28 03:00:00 TS 23.0747 83.5888 main 0 0 _________PO___ -1 23.1495 83.2775 TC 30 23.0000 83.9000 1 12 282
1937171N21090 1937 19 NI BB NOT_NAMED 1937-06-28 06:00:00 TS 23.2031 82.9669 main 0 0 _________OP___ -1 23.3000 82.7000 TC 30 23.1062 83.2338 1 12 282
1937171N21090 1937 19 NI BB NOT_NAMED 1937-06-28 09:00:00 TS 23.3204 82.3514 main 0 0 _________PP___ -1 23.4074 82.0848 TC 30 23.2334 82.6180 1 11 282
1937171N21090 1937 19 NI BB NOT_NAMED 1937-06-28 12:00:00 TS 23.4345 81.7716 main 0 0 _________OP___ -1 23.5000 81.5000 TC 30 23.3690 82.0431 1 10 283
1937171N21090 1937 19 NI BB NOT_NAMED 1937-06-28 15:00:00 TS 23.5498 81.2424 main 0 0 _________PO___ -1 23.5997 80.9849 TC 30 23.5000 81.5000 1 9 283
1937171N21090 1937 19 NI BB NOT_NAMED 1937-06-28 18:00:00 TS 23.6521 80.7744 main 0 0 _________OP___ -1 23.7000 80.5000 TC 30 23.6162 80.9802 1 9 283
1937171N21090 1937 19 NI BB NOT_NAMED 1937-06-28 21:00:00 TS 23.7515 80.2886 main 0 0 _________PP___ -1 23.8004 80.0052 TC 30 23.7189 80.4776 1 9 282
1937171N21090 1937 19 NI BB NOT_NAMED 1937-06-29 00:00:00 TS 23.8415 79.8241 main 0 0 _________OP___ -1 23.9000 79.5000 TC 30 23.8122 79.9861 1 7 282
1937171N21090 1937 19 NI BB NOT_NAMED 1937-06-29 03:00:00 NR 23.9000 79.5000 main 0 __________O___ -1 TC 23.9000 79.5000 1 6 281

IBTrACS Databaseについて

本データベースは、米国NOAAが公開する1842年以降の世界の熱帯低気圧のベストトラックデータアーカイブInternational Best Track Archive for Climate Stewardship (IBTrACS)を、ウェブで閲覧しやすい形式に変換したものです。

最終更新日:2021-11-26